sensor_id;sensor_type;location;lat;lon;timestamp;temperature;humidity
12223;DHT22;6174;49.058;8.524;2023-02-07T05:01:17;0.30;99.90
12223;DHT22;6174;49.058;8.524;2023-02-07T05:03:44;0.30;99.90
12223;DHT22;6174;49.058;8.524;2023-02-07T05:06:11;0.30;99.90
12223;DHT22;6174;49.058;8.524;2023-02-07T05:08:38;0.30;99.90
12223;DHT22;6174;49.058;8.524;2023-02-07T05:11:05;0.20;99.90
12223;DHT22;6174;49.058;8.524;2023-02-07T05:13:32;0.20;99.90
12223;DHT22;6174;49.058;8.524;2023-02-07T05:16:01;0.20;99.90
12223;DHT22;6174;49.058;8.524;2023-02-07T05:18:29;0.20;99.90
12223;DHT22;6174;49.058;8.524;2023-02-07T05:20:56;0.10;99.90
12223;DHT22;6174;49.058;8.524;2023-02-07T05:23:23;0.10;99.90
12223;DHT22;6174;49.058;8.524;2023-02-07T05:25:50;0.10;99.90
12223;DHT22;6174;49.058;8.524;2023-02-07T05:28:17;0.10;99.90
12223;DHT22;6174;49.058;8.524;2023-02-07T05:30:44;0.00;99.90
12223;DHT22;6174;49.058;8.524;2023-02-07T05:33:10;0.00;99.90
12223;DHT22;6174;49.058;8.524;2023-02-07T05:35:39;0.00;99.90
12223;DHT22;6174;49.058;8.524;2023-02-07T05:38:07;-0.10;99.90
12223;DHT22;6174;49.058;8.524;2023-02-07T05:40:36;-0.10;99.90
12223;DHT22;6174;49.058;8.524;2023-02-07T05:43:03;-0.10;99.90
12223;DHT22;6174;49.058;8.524;2023-02-07T05:45:30;-0.10;99.90
12223;DHT22;6174;49.058;8.524;2023-02-07T05:47:57;-0.10;99.90
12223;DHT22;6174;49.058;8.524;2023-02-07T05:50:24;-0.10;99.90
12223;DHT22;6174;49.058;8.524;2023-02-07T05:52:52;-0.20;99.90
12223;DHT22;6174;49.058;8.524;2023-02-07T05:55:19;-0.10;99.90
12223;DHT22;6174;49.058;8.524;2023-02-07T05:57:46;-0.10;99.90
12223;DHT22;6174;49.058;8.524;2023-02-07T06:00:15;-0.10;99.90
12223;DHT22;6174;49.058;8.524;2023-02-07T06:02:42;0.00;99.90
12223;DHT22;6174;49.058;8.524;2023-02-07T06:05:11;-0.10;99.90
12223;DHT22;6174;49.058;8.524;2023-02-07T06:07:38;-0.10;99.90
12223;DHT22;6174;49.058;8.524;2023-02-07T06:10:07;-0.10;99.90
12223;DHT22;6174;49.058;8.524;2023-02-07T06:12:34;-0.10;99.90
12223;DHT22;6174;49.058;8.524;2023-02-07T06:15:01;-0.20;99.90
12223;DHT22;6174;49.058;8.524;2023-02-07T06:17:28;-0.20;99.90
12223;DHT22;6174;49.058;8.524;2023-02-07T06:19:55;-0.20;99.90
12223;DHT22;6174;49.058;8.524;2023-02-07T06:22:22;-0.20;99.90
12223;DHT22;6174;49.058;8.524;2023-02-07T06:24:49;-0.30;99.90
12223;DHT22;6174;49.058;8.524;2023-02-07T06:27:17;-0.30;99.90
12223;DHT22;6174;49.058;8.524;2023-02-07T06:29:43;-0.30;99.90
12223;DHT22;6174;49.058;8.524;2023-02-07T06:32:10;-0.30;99.90
12223;DHT22;6174;49.058;8.524;2023-02-07T06:34:37;-0.30;99.90
12223;DHT22;6174;49.058;8.524;2023-02-07T06:37:03;-0.30;99.90
12223;DHT22;6174;49.058;8.524;2023-02-07T06:39:30;-0.30;99.90
12223;DHT22;6174;49.058;8.524;2023-02-07T06:41:57;-0.40;99.90
12223;DHT22;6174;49.058;8.524;2023-02-07T06:44:25;-0.40;99.90
12223;DHT22;6174;49.058;8.524;2023-02-07T06:46:52;-0.40;99.90
12223;DHT22;6174;49.058;8.524;2023-02-07T06:49:18;-0.40;99.90
12223;DHT22;6174;49.058;8.524;2023-02-07T06:51:45;-0.40;99.90
12223;DHT22;6174;49.058;8.524;2023-02-07T06:54:12;-0.40;99.90
12223;DHT22;6174;49.058;8.524;2023-02-07T06:56:39;-0.50;99.90
12223;DHT22;6174;49.058;8.524;2023-02-07T06:59:05;-0.50;99.90
12223;DHT22;6174;49.058;8.524;2023-02-07T07:01:33;-0.50;99.90
12223;DHT22;6174;49.058;8.524;2023-02-07T07:04:00;-0.50;99.90
12223;DHT22;6174;49.058;8.524;2023-02-07T07:06:27;-0.50;99.90
12223;DHT22;6174;49.058;8.524;2023-02-07T07:08:54;-0.50;99.90
12223;DHT22;6174;49.058;8.524;2023-02-07T07:11:20;-0.50;99.90
12223;DHT22;6174;49.058;8.524;2023-02-07T07:13:47;-0.50;99.90
12223;DHT22;6174;49.058;8.524;2023-02-07T07:16:14;-0.50;99.90
12223;DHT22;6174;49.058;8.524;2023-02-07T07:18:42;-0.60;99.90
12223;DHT22;6174;49.058;8.524;2023-02-07T07:21:09;-0.60;99.90
12223;DHT22;6174;49.058;8.524;2023-02-07T07:23:37;-0.50;99.90
12223;DHT22;6174;49.058;8.524;2023-02-07T07:26:04;-0.50;99.90
12223;DHT22;6174;49.058;8.524;2023-02-07T07:28:31;-0.50;99.90
12223;DHT22;6174;49.058;8.524;2023-02-07T07:31:02;-0.50;99.90
12223;DHT22;6174;49.058;8.524;2023-02-07T07:33:29;-0.50;99.90
12223;DHT22;6174;49.058;8.524;2023-02-07T07:35:58;-0.40;99.90
12223;DHT22;6174;49.058;8.524;2023-02-07T07:38:25;-0.40;99.90
12223;DHT22;6174;49.058;8.524;2023-02-07T07:40:51;-0.40;99.90
12223;DHT22;6174;49.058;8.524;2023-02-07T07:43:19;-0.30;99.90
12223;DHT22;6174;49.058;8.524;2023-02-07T07:45:49;-0.30;99.90
12223;DHT22;6174;49.058;8.524;2023-02-07T07:48:16;-0.20;99.90
12223;DHT22;6174;49.058;8.524;2023-02-07T07:50:43;-0.20;99.90
12223;DHT22;6174;49.058;8.524;2023-02-07T07:53:11;-0.20;99.90
12223;DHT22;6174;49.058;8.524;2023-02-07T07:55:38;-0.10;99.90
12223;DHT22;6174;49.058;8.524;2023-02-07T07:58:05;-0.10;99.90
12223;DHT22;6174;49.058;8.524;2023-02-07T08:00:31;0.00;99.90
12223;DHT22;6174;49.058;8.524;2023-02-07T08:02:58;0.00;99.90
12223;DHT22;6174;49.058;8.524;2023-02-07T08:05:25;0.00;99.90
12223;DHT22;6174;49.058;8.524;2023-02-07T08:07:52;0.00;99.90
12223;DHT22;6174;49.058;8.524;2023-02-07T08:10:20;0.00;99.90
12223;DHT22;6174;49.058;8.524;2023-02-07T08:12:46;0.10;99.90
12223;DHT22;6174;49.058;8.524;2023-02-07T08:15:13;0.10;99.90
12223;DHT22;6174;49.058;8.524;2023-02-07T08:17:40;0.10;99.90
12223;DHT22;6174;49.058;8.524;2023-02-07T08:20:08;0.20;99.90
12223;DHT22;6174;49.058;8.524;2023-02-07T08:22:36;0.20;99.90
12223;DHT22;6174;49.058;8.524;2023-02-07T08:25:03;0.30;99.90
12223;DHT22;6174;49.058;8.524;2023-02-07T08:27:31;0.40;99.90
12223;DHT22;6174;49.058;8.524;2023-02-07T08:29:58;0.40;99.90
12223;DHT22;6174;49.058;8.524;2023-02-07T08:32:24;0.40;99.90
12223;DHT22;6174;49.058;8.524;2023-02-07T08:34:53;0.40;99.90
12223;DHT22;6174;49.058;8.524;2023-02-07T08:37:20;0.40;99.90
12223;DHT22;6174;49.058;8.524;2023-02-07T08:39:47;0.40;99.90
12223;DHT22;6174;49.058;8.524;2023-02-07T08:42:17;0.50;99.90
12223;DHT22;6174;49.058;8.524;2023-02-07T08:44:46;0.60;99.90
12223;DHT22;6174;49.058;8.524;2023-02-07T08:47:13;0.60;99.90
12223;DHT22;6174;49.058;8.524;2023-02-07T08:49:40;0.60;99.90
12223;DHT22;6174;49.058;8.524;2023-02-07T08:52:07;0.70;99.90
12223;DHT22;6174;49.058;8.524;2023-02-07T08:54:33;0.70;99.90
12223;DHT22;6174;49.058;8.524;2023-02-07T08:57:00;0.80;99.90
12223;DHT22;6174;49.058;8.524;2023-02-07T08:59:27;0.80;99.90
12223;DHT22;6174;49.058;8.524;2023-02-07T09:01:55;1.00;99.90
12223;DHT22;6174;49.058;8.524;2023-02-07T09:04:22;1.00;99.90
12223;DHT22;6174;49.058;8.524;2023-02-07T09:06:49;1.00;99.90
12223;DHT22;6174;49.058;8.524;2023-02-07T09:09:15;1.10;99.90
12223;DHT22;6174;49.058;8.524;2023-02-07T09:11:43;1.00;99.90
12223;DHT22;6174;49.058;8.524;2023-02-07T09:14:09;1.10;99.90
12223;DHT22;6174;49.058;8.524;2023-02-07T09:16:36;1.10;99.90
12223;DHT22;6174;49.058;8.524;2023-02-07T09:19:04;1.20;99.90
12223;DHT22;6174;49.058;8.524;2023-02-07T09:21:31;1.30;99.90
12223;DHT22;6174;49.058;8.524;2023-02-07T09:23:58;1.40;99.90
12223;DHT22;6174;49.058;8.524;2023-02-07T09:26:25;1.40;99.90
12223;DHT22;6174;49.058;8.524;2023-02-07T09:28:52;1.40;99.90
12223;DHT22;6174;49.058;8.524;2023-02-07T09:31:18;1.40;99.90
12223;DHT22;6174;49.058;8.524;2023-02-07T09:33:46;1.50;99.90
12223;DHT22;6174;49.058;8.524;2023-02-07T09:36:22;1.50;99.90
12223;DHT22;6174;49.058;8.524;2023-02-07T09:38:50;1.60;99.90
12223;DHT22;6174;49.058;8.524;2023-02-07T09:41:25;1.60;99.90
12223;DHT22;6174;49.058;8.524;2023-02-07T09:44:01;1.60;99.30
12223;DHT22;6174;49.058;8.524;2023-02-07T09:46:33;1.60;99.10
12223;DHT22;6174;49.058;8.524;2023-02-07T09:49:05;1.70;99.90
12223;DHT22;6174;49.058;8.524;2023-02-07T09:51:36;1.70;99.90
12223;DHT22;6174;49.058;8.524;2023-02-07T09:54:05;1.80;99.90
12223;DHT22;6174;49.058;8.524;2023-02-07T09:56:34;1.90;99.90
12223;DHT22;6174;49.058;8.524;2023-02-07T09:59:04;1.90;99.90
12223;DHT22;6174;49.058;8.524;2023-02-07T10:01:35;1.90;99.70
12223;DHT22;6174;49.058;8.524;2023-02-07T10:04:12;2.00;98.80
12223;DHT22;6174;49.058;8.524;2023-02-07T10:06:44;2.00;99.00
12223;DHT22;6174;49.058;8.524;2023-02-07T10:09:15;2.10;98.30
12223;DHT22;6174;49.058;8.524;2023-02-07T10:11:47;2.00;97.70
12223;DHT22;6174;49.058;8.524;2023-02-07T10:14:26;2.00;97.80
12223;DHT22;6174;49.058;8.524;2023-02-07T10:17:08;2.00;97.20
12223;DHT22;6174;49.058;8.524;2023-02-07T10:19:50;2.00;97.30
12223;DHT22;6174;49.058;8.524;2023-02-07T10:22:25;2.00;98.20
12223;DHT22;6174;49.058;8.524;2023-02-07T10:25:17;2.00;98.20
12223;DHT22;6174;49.058;8.524;2023-02-07T10:27:52;2.10;98.60
12223;DHT22;6174;49.058;8.524;2023-02-07T10:30:25;2.20;98.60
12223;DHT22;6174;49.058;8.524;2023-02-07T10:32:53;2.20;98.10
12223;DHT22;6174;49.058;8.524;2023-02-07T10:35:30;2.20;98.20
12223;DHT22;6174;49.058;8.524;2023-02-07T10:38:00;2.30;98.50
12223;DHT22;6174;49.058;8.524;2023-02-07T10:40:32;2.30;99.00
12223;DHT22;6174;49.058;8.524;2023-02-07T10:43:02;2.40;98.20
12223;DHT22;6174;49.058;8.524;2023-02-07T10:45:30;2.50;98.00
12223;DHT22;6174;49.058;8.524;2023-02-07T10:47:56;2.60;97.80
12223;DHT22;6174;49.058;8.524;2023-02-07T10:50:25;2.60;97.20
12223;DHT22;6174;49.058;8.524;2023-02-07T10:52:53;2.60;96.70
12223;DHT22;6174;49.058;8.524;2023-02-07T10:55:36;2.60;96.10
12223;DHT22;6174;49.058;8.524;2023-02-07T10:58:04;2.50;95.30
12223;DHT22;6174;49.058;8.524;2023-02-07T11:00:32;2.50;95.70
12223;DHT22;6174;49.058;8.524;2023-02-07T11:03:01;2.60;97.20
12223;DHT22;6174;49.058;8.524;2023-02-07T11:05:40;2.70;97.90
12223;DHT22;6174;49.058;8.524;2023-02-07T11:08:21;2.70;97.20
12223;DHT22;6174;49.058;8.524;2023-02-07T11:10:54;2.80;97.10
12223;DHT22;6174;49.058;8.524;2023-02-07T11:13:22;2.80;97.10
12223;DHT22;6174;49.058;8.524;2023-02-07T11:15:54;2.90;96.80
12223;DHT22;6174;49.058;8.524;2023-02-07T11:18:32;3.00;97.30
12223;DHT22;6174;49.058;8.524;2023-02-07T11:21:03;3.00;97.40
12223;DHT22;6174;49.058;8.524;2023-02-07T11:23:31;3.10;97.40
12223;DHT22;6174;49.058;8.524;2023-02-07T11:26:01;3.20;96.80
12223;DHT22;6174;49.058;8.524;2023-02-07T11:28:30;3.20;96.80
12223;DHT22;6174;49.058;8.524;2023-02-07T11:31:00;3.30;97.20
12223;DHT22;6174;49.058;8.524;2023-02-07T11:33:30;3.30;95.70
12223;DHT22;6174;49.058;8.524;2023-02-07T11:36:09;3.30;95.30
12223;DHT22;6174;49.058;8.524;2023-02-07T11:38:38;3.40;95.90
12223;DHT22;6174;49.058;8.524;2023-02-07T11:41:15;3.40;96.00
12223;DHT22;6174;49.058;8.524;2023-02-07T11:43:55;3.40;94.80
12223;DHT22;6174;49.058;8.524;2023-02-07T11:46:28;3.40;95.00
12223;DHT22;6174;49.058;8.524;2023-02-07T11:48:57;3.50;95.30
12223;DHT22;6174;49.058;8.524;2023-02-07T11:51:24;3.50;94.90
12223;DHT22;6174;49.058;8.524;2023-02-07T11:53:55;3.50;95.20
12223;DHT22;6174;49.058;8.524;2023-02-07T11:56:28;3.60;95.90
12223;DHT22;6174;49.058;8.524;2023-02-07T11:58:56;3.60;95.40
12223;DHT22;6174;49.058;8.524;2023-02-07T12:01:27;3.60;94.70
12223;DHT22;6174;49.058;8.524;2023-02-07T12:03:56;3.70;94.90
12223;DHT22;6174;49.058;8.524;2023-02-07T12:06:30;3.60;93.80
12223;DHT22;6174;49.058;8.524;2023-02-07T12:08:59;3.60;94.80
12223;DHT22;6174;49.058;8.524;2023-02-07T12:11:33;3.60;94.60
12223;DHT22;6174;49.058;8.524;2023-02-07T12:14:07;3.60;94.50
12223;DHT22;6174;49.058;8.524;2023-02-07T12:16:38;3.70;95.10
12223;DHT22;6174;49.058;8.524;2023-02-07T12:19:28;3.70;94.50
12223;DHT22;6174;49.058;8.524;2023-02-07T12:22:02;3.60;93.90
12223;DHT22;6174;49.058;8.524;2023-02-07T12:24:35;3.60;94.20
12223;DHT22;6174;49.058;8.524;2023-02-07T12:27:11;3.60;94.20
12223;DHT22;6174;49.058;8.524;2023-02-07T12:29:48;3.60;95.20
12223;DHT22;6174;49.058;8.524;2023-02-07T12:32:22;3.70;94.80
12223;DHT22;6174;49.058;8.524;2023-02-07T12:34:54;3.80;94.40
12223;DHT22;6174;49.058;8.524;2023-02-07T12:37:27;3.90;95.10
12223;DHT22;6174;49.058;8.524;2023-02-07T12:40:01;4.00;95.00
12223;DHT22;6174;49.058;8.524;2023-02-07T12:42:38;4.00;95.20
12223;DHT22;6174;49.058;8.524;2023-02-07T12:45:13;4.00;95.00
12223;DHT22;6174;49.058;8.524;2023-02-07T12:47:49;4.00;94.80
12223;DHT22;6174;49.058;8.524;2023-02-07T12:50:51;4.10;95.00
12223;DHT22;6174;49.058;8.524;2023-02-07T12:53:44;4.10;94.80
12223;DHT22;6174;49.058;8.524;2023-02-07T12:56:26;4.20;94.50
12223;DHT22;6174;49.058;8.524;2023-02-07T12:59:01;4.10;94.90
12223;DHT22;6174;49.058;8.524;2023-02-07T13:01:36;4.10;94.40
12223;DHT22;6174;49.058;8.524;2023-02-07T13:04:29;4.20;94.60
12223;DHT22;6174;49.058;8.524;2023-02-07T13:07:08;4.30;94.60
12223;DHT22;6174;49.058;8.524;2023-02-07T13:09:44;4.40;94.10
12223;DHT22;6174;49.058;8.524;2023-02-07T13:12:17;4.40;93.70
12223;DHT22;6174;49.058;8.524;2023-02-07T13:14:58;4.40;93.80
12223;DHT22;6174;49.058;8.524;2023-02-07T13:17:37;4.40;93.70
12223;DHT22;6174;49.058;8.524;2023-02-07T13:20:18;4.40;93.00
12223;DHT22;6174;49.058;8.524;2023-02-07T13:22:49;4.50;92.90
12223;DHT22;6174;49.058;8.524;2023-02-07T13:25:22;4.50;93.10
12223;DHT22;6174;49.058;8.524;2023-02-07T13:27:52;4.50;93.20
12223;DHT22;6174;49.058;8.524;2023-02-07T13:30:22;4.50;92.90
12223;DHT22;6174;49.058;8.524;2023-02-07T13:32:51;4.40;92.30
12223;DHT22;6174;49.058;8.524;2023-02-07T13:35:21;4.50;93.10
12223;DHT22;6174;49.058;8.524;2023-02-07T13:37:54;4.50;92.90
12223;DHT22;6174;49.058;8.524;2023-02-07T13:40:31;4.60;93.00
12223;DHT22;6174;49.058;8.524;2023-02-07T13:43:03;4.60;93.00
12223;DHT22;6174;49.058;8.524;2023-02-07T13:45:42;4.60;92.00
12223;DHT22;6174;49.058;8.524;2023-02-07T13:48:16;4.60;91.70
12223;DHT22;6174;49.058;8.524;2023-02-07T13:50:53;4.60;91.90
12223;DHT22;6174;49.058;8.524;2023-02-07T13:53:29;4.60;91.20
12223;DHT22;6174;49.058;8.524;2023-02-07T13:56:01;4.60;91.30
12223;DHT22;6174;49.058;8.524;2023-02-07T13:58:55;4.60;91.50
12223;DHT22;6174;49.058;8.524;2023-02-07T14:01:49;4.60;91.10
12223;DHT22;6174;49.058;8.524;2023-02-07T14:04:16;4.60;90.80
12223;DHT22;6174;49.058;8.524;2023-02-07T14:06:54;4.60;91.40
12223;DHT22;6174;49.058;8.524;2023-02-07T14:09:32;4.50;90.30
12223;DHT22;6174;49.058;8.524;2023-02-07T14:12:02;5.40;90.90
12223;DHT22;6174;49.058;8.524;2023-02-07T14:14:30;4.50;91.10
12223;DHT22;6174;49.058;8.524;2023-02-07T14:17:00;4.50;90.90
12223;DHT22;6174;49.058;8.524;2023-02-07T14:19:46;4.50;90.80
12223;DHT22;6174;49.058;8.524;2023-02-07T14:22:15;4.60;90.70
12223;DHT22;6174;49.058;8.524;2023-02-07T14:25:19;4.60;90.50
12223;DHT22;6174;49.058;8.524;2023-02-07T14:28:18;4.50;90.10
12223;DHT22;6174;49.058;8.524;2023-02-07T14:31:00;4.50;90.30
12223;DHT22;6174;49.058;8.524;2023-02-07T14:33:34;4.50;90.10
12223;DHT22;6174;49.058;8.524;2023-02-07T14:36:22;4.50;90.20
12223;DHT22;6174;49.058;8.524;2023-02-07T14:41:49;4.50;90.20
12223;DHT22;6174;49.058;8.524;2023-02-07T14:44:22;4.50;90.00
12223;DHT22;6174;49.058;8.524;2023-02-07T14:46:51;4.50;89.80
12223;DHT22;6174;49.058;8.524;2023-02-07T14:49:25;4.50;90.00
12223;DHT22;6174;49.058;8.524;2023-02-07T14:51:58;4.80;90.40
12223;DHT22;6174;49.058;8.524;2023-02-07T14:54:28;4.50;89.10
12223;DHT22;6174;49.058;8.524;2023-02-07T14:57:05;4.50;88.10
12223;DHT22;6174;49.058;8.524;2023-02-07T14:59:37;4.50;89.50
12223;DHT22;6174;49.058;8.524;2023-02-07T15:02:31;4.50;89.40
12223;DHT22;6174;49.058;8.524;2023-02-07T15:05:16;4.50;89.50
12223;DHT22;6174;49.058;8.524;2023-02-07T15:07:43;4.50;89.50
12223;DHT22;6174;49.058;8.524;2023-02-07T15:10:15;4.40;89.20
12223;DHT22;6174;49.058;8.524;2023-02-07T15:12:43;4.40;89.90
12223;DHT22;6174;49.058;8.524;2023-02-07T15:15:17;4.40;90.00
12223;DHT22;6174;49.058;8.524;2023-02-07T15:17:44;4.40;88.00
12223;DHT22;6174;49.058;8.524;2023-02-07T15:20:17;4.40;88.50
12223;DHT22;6174;49.058;8.524;2023-02-07T15:22:47;4.40;89.00
12223;DHT22;6174;49.058;8.524;2023-02-07T15:25:14;4.30;87.80
12223;DHT22;6174;49.058;8.524;2023-02-07T15:27:41;4.30;88.40
12223;DHT22;6174;49.058;8.524;2023-02-07T15:30:17;4.30;88.90
12223;DHT22;6174;49.058;8.524;2023-02-07T15:32:45;4.30;88.10
12223;DHT22;6174;49.058;8.524;2023-02-07T15:35:17;4.30;86.90
12223;DHT22;6174;49.058;8.524;2023-02-07T15:37:45;4.30;87.30
12223;DHT22;6174;49.058;8.524;2023-02-07T15:40:14;4.20;86.40
12223;DHT22;6174;49.058;8.524;2023-02-07T15:42:52;4.20;85.60
12223;DHT22;6174;49.058;8.524;2023-02-07T15:45:22;4.10;85.80
12223;DHT22;6174;49.058;8.524;2023-02-07T15:47:55;4.10;85.30
12223;DHT22;6174;49.058;8.524;2023-02-07T15:50:26;4.10;86.30
12223;DHT22;6174;49.058;8.524;2023-02-07T15:52:55;4.00;86.80
12223;DHT22;6174;49.058;8.524;2023-02-07T15:55:28;4.00;87.70
12223;DHT22;6174;49.058;8.524;2023-02-07T15:57:55;3.90;88.10
12223;DHT22;6174;49.058;8.524;2023-02-07T16:00:25;3.80;87.60
12223;DHT22;6174;49.058;8.524;2023-02-07T16:02:55;3.90;88.50
12223;DHT22;6174;49.058;8.524;2023-02-07T16:05:26;3.80;86.30
12223;DHT22;6174;49.058;8.524;2023-02-07T16:07:55;3.70;86.20
12223;DHT22;6174;49.058;8.524;2023-02-07T16:10:35;3.70;87.00
12223;DHT22;6174;49.058;8.524;2023-02-07T16:13:10;3.70;87.30
12223;DHT22;6174;49.058;8.524;2023-02-07T16:15:52;3.60;87.90
12223;DHT22;6174;49.058;8.524;2023-02-07T16:18:34;3.60;86.60
12223;DHT22;6174;49.058;8.524;2023-02-07T16:21:03;3.60;88.50
12223;DHT22;6174;49.058;8.524;2023-02-07T16:23:30;3.60;87.70
12223;DHT22;6174;49.058;8.524;2023-02-07T16:25:57;3.50;87.80
12223;DHT22;6174;49.058;8.524;2023-02-07T16:28:26;3.40;88.50
12223;DHT22;6174;49.058;8.524;2023-02-07T16:30:53;3.40;89.10
12223;DHT22;6174;49.058;8.524;2023-02-07T16:33:20;3.40;88.80
12223;DHT22;6174;49.058;8.524;2023-02-07T16:35:46;3.30;88.50
12223;DHT22;6174;49.058;8.524;2023-02-07T16:38:15;3.30;88.80
12223;DHT22;6174;49.058;8.524;2023-02-07T16:40:41;3.30;89.50
12223;DHT22;6174;49.058;8.524;2023-02-07T16:43:21;3.20;89.70
12223;DHT22;6174;49.058;8.524;2023-02-07T16:45:52;3.40;89.50
12223;DHT22;6174;49.058;8.524;2023-02-07T16:48:19;3.20;89.40
12223;DHT22;6174;49.058;8.524;2023-02-07T16:50:46;3.10;88.70
12223;DHT22;6174;49.058;8.524;2023-02-07T16:53:12;3.00;89.00
12223;DHT22;6174;49.058;8.524;2023-02-07T16:55:40;2.90;89.40
12223;DHT22;6174;49.058;8.524;2023-02-07T16:58:09;2.90;89.40
12223;DHT22;6174;49.058;8.524;2023-02-07T17:00:40;2.90;89.20
12223;DHT22;6174;49.058;8.524;2023-02-07T17:03:13;2.90;90.10
12223;DHT22;6174;49.058;8.524;2023-02-07T17:05:40;2.80;89.30
12223;DHT22;6174;49.058;8.524;2023-02-07T17:08:10;2.80;89.40
12223;DHT22;6174;49.058;8.524;2023-02-07T17:10:40;2.80;89.90
12223;DHT22;6174;49.058;8.524;2023-02-07T17:13:08;2.80;90.00
12223;DHT22;6174;49.058;8.524;2023-02-07T17:15:35;2.70;90.00
12223;DHT22;6174;49.058;8.524;2023-02-07T17:18:01;2.70;89.60
12223;DHT22;6174;49.058;8.524;2023-02-07T17:20:29;2.70;88.70
12223;DHT22;6174;49.058;8.524;2023-02-07T17:22:57;2.60;88.70
12223;DHT22;6174;49.058;8.524;2023-02-07T17:25:27;2.60;88.80
12223;DHT22;6174;49.058;8.524;2023-02-07T17:27:56;2.60;89.40
12223;DHT22;6174;49.058;8.524;2023-02-07T17:30:25;2.60;90.00
12223;DHT22;6174;49.058;8.524;2023-02-07T17:32:52;2.50;90.30
12223;DHT22;6174;49.058;8.524;2023-02-07T17:35:19;2.50;90.40
12223;DHT22;6174;49.058;8.524;2023-02-07T17:37:47;2.40;90.80
12223;DHT22;6174;49.058;8.524;2023-02-07T17:40:23;2.40;91.00
12223;DHT22;6174;49.058;8.524;2023-02-07T17:42:51;2.40;90.90
12223;DHT22;6174;49.058;8.524;2023-02-07T17:45:19;2.40;91.20
12223;DHT22;6174;49.058;8.524;2023-02-07T17:47:46;2.40;91.20
12223;DHT22;6174;49.058;8.524;2023-02-07T17:50:16;2.30;91.40
12223;DHT22;6174;49.058;8.524;2023-02-07T17:52:43;2.40;91.40
12223;DHT22;6174;49.058;8.524;2023-02-07T17:55:14;2.40;91.50
12223;DHT22;6174;49.058;8.524;2023-02-07T17:57:41;2.30;91.30
12223;DHT22;6174;49.058;8.524;2023-02-07T18:00:15;2.40;91.30
12223;DHT22;6174;49.058;8.524;2023-02-07T18:02:45;2.40;91.40
12223;DHT22;6174;49.058;8.524;2023-02-07T18:05:12;2.40;91.50
12223;DHT22;6174;49.058;8.524;2023-02-07T18:07:39;2.30;91.50
12223;DHT22;6174;49.058;8.524;2023-02-07T18:10:07;2.30;91.60
12223;DHT22;6174;49.058;8.524;2023-02-07T18:12:37;2.30;91.60
12223;DHT22;6174;49.058;8.524;2023-02-07T18:15:08;2.30;91.70
12223;DHT22;6174;49.058;8.524;2023-02-07T18:17:35;2.30;91.70
12223;DHT22;6174;49.058;8.524;2023-02-07T18:20:06;2.20;91.90
12223;DHT22;6174;49.058;8.524;2023-02-07T18:22:33;2.20;91.90
12223;DHT22;6174;49.058;8.524;2023-02-07T18:25:00;2.10;92.10
12223;DHT22;6174;49.058;8.524;2023-02-07T18:27:27;2.10;92.10
12223;DHT22;6174;49.058;8.524;2023-02-07T18:29:54;2.10;92.20
12223;DHT22;6174;49.058;8.524;2023-02-07T18:32:21;2.00;92.40
12223;DHT22;6174;49.058;8.524;2023-02-07T18:34:47;2.00;92.50
12223;DHT22;6174;49.058;8.524;2023-02-07T18:37:15;1.90;92.60
12223;DHT22;6174;49.058;8.524;2023-02-07T18:39:42;1.90;92.70
12223;DHT22;6174;49.058;8.524;2023-02-07T18:42:09;1.90;92.90
12223;DHT22;6174;49.058;8.524;2023-02-07T18:44:38;1.90;93.10
12223;DHT22;6174;49.058;8.524;2023-02-07T18:47:05;1.80;93.20
12223;DHT22;6174;49.058;8.524;2023-02-07T18:49:32;1.70;93.30
12223;DHT22;6174;49.058;8.524;2023-02-07T18:51:59;1.70;93.50
12223;DHT22;6174;49.058;8.524;2023-02-07T18:54:27;1.60;93.60
12223;DHT22;6174;49.058;8.524;2023-02-07T18:56:54;1.60;93.60
12223;DHT22;6174;49.058;8.524;2023-02-07T18:59:23;1.50;93.50
12223;DHT22;6174;49.058;8.524;2023-02-07T19:01:50;1.50;93.60
12223;DHT22;6174;49.058;8.524;2023-02-07T19:04:18;1.50;93.90
12223;DHT22;6174;49.058;8.524;2023-02-07T19:06:45;1.50;93.80
12223;DHT22;6174;49.058;8.524;2023-02-07T19:09:13;1.50;93.70
12223;DHT22;6174;49.058;8.524;2023-02-07T19:11:43;1.40;93.80
12223;DHT22;6174;49.058;8.524;2023-02-07T19:14:12;1.40;94.10
12223;DHT22;6174;49.058;8.524;2023-02-07T19:16:40;1.40;94.10
12223;DHT22;6174;49.058;8.524;2023-02-07T19:19:12;1.30;94.20
12223;DHT22;6174;49.058;8.524;2023-02-07T19:21:49;1.30;94.20
12223;DHT22;6174;49.058;8.524;2023-02-07T19:24:16;1.30;94.30
12223;DHT22;6174;49.058;8.524;2023-02-07T19:26:46;1.30;94.30
12223;DHT22;6174;49.058;8.524;2023-02-07T19:29:14;1.30;94.40
12223;DHT22;6174;49.058;8.524;2023-02-07T19:31:42;1.30;94.50
12223;DHT22;6174;49.058;8.524;2023-02-07T19:34:09;1.20;94.60
12223;DHT22;6174;49.058;8.524;2023-02-07T19:36:37;1.20;94.90
12223;DHT22;6174;49.058;8.524;2023-02-07T19:39:05;1.10;95.00
12223;DHT22;6174;49.058;8.524;2023-02-07T19:41:32;1.10;94.90
12223;DHT22;6174;49.058;8.524;2023-02-07T19:44:01;1.10;95.20
12223;DHT22;6174;49.058;8.524;2023-02-07T19:46:28;1.00;95.30
12223;DHT22;6174;49.058;8.524;2023-02-07T19:48:55;1.00;95.50
12223;DHT22;6174;49.058;8.524;2023-02-07T19:51:23;1.00;95.70
12223;DHT22;6174;49.058;8.524;2023-02-07T19:53:52;0.90;95.70
12223;DHT22;6174;49.058;8.524;2023-02-07T19:56:20;0.90;96.10
12223;DHT22;6174;49.058;8.524;2023-02-07T19:58:53;0.80;96.50
12223;DHT22;6174;49.058;8.524;2023-02-07T20:01:22;0.80;96.70
12223;DHT22;6174;49.058;8.524;2023-02-07T20:03:50;0.70;96.90
12223;DHT22;6174;49.058;8.524;2023-02-07T20:06:19;0.70;97.50
12223;DHT22;6174;49.058;8.524;2023-02-07T20:08:47;0.60;97.70
12223;DHT22;6174;49.058;8.524;2023-02-07T20:11:15;0.60;98.10
12223;DHT22;6174;49.058;8.524;2023-02-07T20:13:44;0.50;98.00
12223;DHT22;6174;49.058;8.524;2023-02-07T20:16:13;0.40;98.70
12223;DHT22;6174;49.058;8.524;2023-02-07T20:18:42;0.40;98.80
12223;DHT22;6174;49.058;8.524;2023-02-07T20:21:12;0.40;99.50
12223;DHT22;6174;49.058;8.524;2023-02-07T20:23:39;0.30;99.10
12223;DHT22;6174;49.058;8.524;2023-02-07T20:26:13;0.30;99.90
12223;DHT22;6174;49.058;8.524;2023-02-07T20:28:41;0.30;99.90
12223;DHT22;6174;49.058;8.524;2023-02-07T20:31:09;0.30;99.90
12223;DHT22;6174;49.058;8.524;2023-02-07T20:33:37;0.30;99.90
12223;DHT22;6174;49.058;8.524;2023-02-07T20:36:07;0.30;99.90
12223;DHT22;6174;49.058;8.524;2023-02-07T20:38:35;0.20;99.90
12223;DHT22;6174;49.058;8.524;2023-02-07T20:41:06;0.20;99.90
12223;DHT22;6174;49.058;8.524;2023-02-07T20:43:33;0.20;99.90
12223;DHT22;6174;49.058;8.524;2023-02-07T20:46:04;0.10;99.90
12223;DHT22;6174;49.058;8.524;2023-02-07T20:48:32;0.10;99.90
12223;DHT22;6174;49.058;8.524;2023-02-07T20:50:59;0.10;99.90
12223;DHT22;6174;49.058;8.524;2023-02-07T20:53:32;0.10;99.90
12223;DHT22;6174;49.058;8.524;2023-02-07T20:56:05;0.10;99.90
12223;DHT22;6174;49.058;8.524;2023-02-07T20:58:32;0.10;99.90
12223;DHT22;6174;49.058;8.524;2023-02-07T21:01:08;0.10;99.90
12223;DHT22;6174;49.058;8.524;2023-02-07T21:03:36;0.10;99.90
12223;DHT22;6174;49.058;8.524;2023-02-07T21:06:03;0.10;99.90
12223;DHT22;6174;49.058;8.524;2023-02-07T21:08:32;0.20;99.90
12223;DHT22;6174;49.058;8.524;2023-02-07T21:10:59;0.20;99.90
12223;DHT22;6174;49.058;8.524;2023-02-07T21:13:26;0.20;99.90
12223;DHT22;6174;49.058;8.524;2023-02-07T21:15:53;0.20;99.90
12223;DHT22;6174;49.058;8.524;2023-02-07T21:18:20;0.30;99.90
12223;DHT22;6174;49.058;8.524;2023-02-07T21:20:47;0.20;99.90
12223;DHT22;6174;49.058;8.524;2023-02-07T21:23:14;0.10;99.90